sensor_id;sensor_type;location;lat;lon;timestamp;temperature;humidity
69464;DHT22;56665;41.106;16.688;2023-03-20T00:02:40;12.54;77.31
69464;DHT22;56665;41.106;16.688;2023-03-20T00:05:44;12.55;77.30
69464;DHT22;56665;41.106;16.688;2023-03-20T00:08:49;12.51;77.53
69464;DHT22;56665;41.106;16.688;2023-03-20T00:11:54;12.52;77.56
69464;DHT22;56665;41.106;16.688;2023-03-20T00:15:09;12.51;77.74
69464;DHT22;56665;41.106;16.688;2023-03-20T00:18:21;12.52;77.85
69464;DHT22;56665;41.106;16.688;2023-03-20T00:21:25;12.55;77.52
69464;DHT22;56665;41.106;16.688;2023-03-20T00:24:29;12.54;77.61
69464;DHT22;56665;41.106;16.688;2023-03-20T00:27:33;12.54;77.68
69464;DHT22;56665;41.106;16.688;2023-03-20T00:30:37;12.54;77.59
69464;DHT22;56665;41.106;16.688;2023-03-20T00:33:41;12.49;77.72
69464;DHT22;56665;41.106;16.688;2023-03-20T00:36:45;12.48;77.75
69464;DHT22;56665;41.106;16.688;2023-03-20T00:39:49;12.45;77.84
69464;DHT22;56665;41.106;16.688;2023-03-20T00:43:00;12.41;78.00
69464;DHT22;56665;41.106;16.688;2023-03-20T00:46:12;12.41;77.72
69464;DHT22;56665;41.106;16.688;2023-03-20T00:49:23;12.37;77.63
69464;DHT22;56665;41.106;16.688;2023-03-20T00:52:27;12.38;77.80
69464;DHT22;56665;41.106;16.688;2023-03-20T00:55:31;12.41;77.69
69464;DHT22;56665;41.106;16.688;2023-03-20T00:58:35;12.38;77.76
69464;DHT22;56665;41.106;16.688;2023-03-20T01:01:39;12.34;78.12
69464;DHT22;56665;41.106;16.688;2023-03-20T01:04:43;12.34;77.90
69464;DHT22;56665;41.106;16.688;2023-03-20T01:07:47;12.28;77.49
69464;DHT22;56665;41.106;16.688;2023-03-20T01:10:55;12.27;77.23
69464;DHT22;56665;41.106;16.688;2023-03-20T01:14:01;12.24;77.15
69464;DHT22;56665;41.106;16.688;2023-03-20T01:17:09;12.21;77.24
69464;DHT22;56665;41.106;16.688;2023-03-20T01:20:23;12.18;77.15
69464;DHT22;56665;41.106;16.688;2023-03-20T01:23:27;12.12;76.23
69464;DHT22;56665;41.106;16.688;2023-03-20T01:26:35;11.97;76.05
69464;DHT22;56665;41.106;16.688;2023-03-20T01:29:40;11.90;76.89
69464;DHT22;56665;41.106;16.688;2023-03-20T01:32:45;11.90;77.18
69464;DHT22;56665;41.106;16.688;2023-03-20T01:35:50;11.91;77.01
69464;DHT22;56665;41.106;16.688;2023-03-20T01:38:56;11.90;77.09
69464;DHT22;56665;41.106;16.688;2023-03-20T01:42:01;11.90;77.54
69464;DHT22;56665;41.106;16.688;2023-03-20T01:45:18;11.82;76.47
69464;DHT22;56665;41.106;16.688;2023-03-20T01:48:31;11.76;76.53
69464;DHT22;56665;41.106;16.688;2023-03-20T01:51:37;11.66;76.73
69464;DHT22;56665;41.106;16.688;2023-03-20T01:54:46;11.62;76.72
69464;DHT22;56665;41.106;16.688;2023-03-20T01:57:53;11.52;77.03
69464;DHT22;56665;41.106;16.688;2023-03-20T02:00:59;11.47;77.80
69464;DHT22;56665;41.106;16.688;2023-03-20T02:04:04;11.47;78.04
69464;DHT22;56665;41.106;16.688;2023-03-20T02:07:38;11.41;78.45
69464;DHT22;56665;41.106;16.688;2023-03-20T02:10:46;11.42;78.82
69464;DHT22;56665;41.106;16.688;2023-03-20T02:14:00;11.38;78.98
69464;DHT22;56665;41.106;16.688;2023-03-20T02:17:09;11.44;79.59
69464;DHT22;56665;41.106;16.688;2023-03-20T02:20:36;11.49;79.85
69464;DHT22;56665;41.106;16.688;2023-03-20T02:27:39;11.58;79.58
69464;DHT22;56665;41.106;16.688;2023-03-20T02:41:02;11.61;79.71
69464;DHT22;56665;41.106;16.688;2023-03-20T02:47:31;11.58;79.78
69464;DHT22;56665;41.106;16.688;2023-03-20T02:51:03;11.56;79.89
69464;DHT22;56665;41.106;16.688;2023-03-20T03:00:58;11.52;80.12
69464;DHT22;56665;41.106;16.688;2023-03-20T03:04:10;11.51;80.22
69464;DHT22;56665;41.106;16.688;2023-03-20T03:07:14;11.52;80.41
69464;DHT22;56665;41.106;16.688;2023-03-20T03:10:23;11.54;80.51
69464;DHT22;56665;41.106;16.688;2023-03-20T03:13:31;11.55;80.79
69464;DHT22;56665;41.106;16.688;2023-03-20T03:16:39;11.54;80.89
69464;DHT22;56665;41.106;16.688;2023-03-20T03:19:50;11.58;80.99
69464;DHT22;56665;41.106;16.688;2023-03-20T03:22:56;11.54;80.97
69464;DHT22;56665;41.106;16.688;2023-03-20T03:26:03;11.52;81.21
69464;DHT22;56665;41.106;16.688;2023-03-20T03:29:13;11.55;81.27
69464;DHT22;56665;41.106;16.688;2023-03-20T03:32:31;11.55;81.32
69464;DHT22;56665;41.106;16.688;2023-03-20T03:35:35;11.54;81.37
69464;DHT22;56665;41.106;16.688;2023-03-20T03:42:03;11.49;81.37
69464;DHT22;56665;41.106;16.688;2023-03-20T03:45:30;11.52;81.16
69464;DHT22;56665;41.106;16.688;2023-03-20T03:48:41;11.45;81.26
69464;DHT22;56665;41.106;16.688;2023-03-20T03:51:49;11.45;81.08
69464;DHT22;56665;41.106;16.688;2023-03-20T03:55:00;11.37;81.20
69464;DHT22;56665;41.106;16.688;2023-03-20T03:58:16;11.39;81.33
69464;DHT22;56665;41.106;16.688;2023-03-20T04:01:22;11.37;81.22
69464;DHT22;56665;41.106;16.688;2023-03-20T04:04:29;11.34;81.31
69464;DHT22;56665;41.106;16.688;2023-03-20T04:07:33;11.31;81.08
69464;DHT22;56665;41.106;16.688;2023-03-20T04:10:37;11.34;81.34
69464;DHT22;56665;41.106;16.688;2023-03-20T04:13:46;11.29;80.99
69464;DHT22;56665;41.106;16.688;2023-03-20T04:16:51;11.25;80.93
69464;DHT22;56665;41.106;16.688;2023-03-20T04:19:56;11.19;80.78
69464;DHT22;56665;41.106;16.688;2023-03-20T04:23:01;11.17;80.72
69464;DHT22;56665;41.106;16.688;2023-03-20T04:26:05;11.11;80.48
69464;DHT22;56665;41.106;16.688;2023-03-20T04:29:11;11.07;80.71
69464;DHT22;56665;41.106;16.688;2023-03-20T04:32:44;11.07;80.56
69464;DHT22;56665;41.106;16.688;2023-03-20T04:36:05;11.06;80.82
69464;DHT22;56665;41.106;16.688;2023-03-20T04:39:09;11.10;80.50
69464;DHT22;56665;41.106;16.688;2023-03-20T04:42:13;11.11;80.98
69464;DHT22;56665;41.106;16.688;2023-03-20T04:45:17;11.04;80.67
69464;DHT22;56665;41.106;16.688;2023-03-20T04:48:21;11.00;80.72
69464;DHT22;56665;41.106;16.688;2023-03-20T04:51:25;10.98;80.71
69464;DHT22;56665;41.106;16.688;2023-03-20T04:54:30;10.97;80.90
69464;DHT22;56665;41.106;16.688;2023-03-20T04:57:33;10.94;80.79
69464;DHT22;56665;41.106;16.688;2023-03-20T05:00:37;10.93;80.83
69464;DHT22;56665;41.106;16.688;2023-03-20T05:03:41;10.88;81.10
69464;DHT22;56665;41.106;16.688;2023-03-20T05:06:44;10.87;81.09
69464;DHT22;56665;41.106;16.688;2023-03-20T05:09:51;10.88;80.89
69464;DHT22;56665;41.106;16.688;2023-03-20T05:12:55;10.93;80.99
69464;DHT22;56665;41.106;16.688;2023-03-20T05:16:05;11.01;81.19
69464;DHT22;56665;41.106;16.688;2023-03-20T05:19:28;11.10;81.23
69464;DHT22;56665;41.106;16.688;2023-03-20T05:22:49;11.21;81.00
69464;DHT22;56665;41.106;16.688;2023-03-20T05:26:17;11.31;80.89
69464;DHT22;56665;41.106;16.688;2023-03-20T05:29:32;11.37;80.30
69464;DHT22;56665;41.106;16.688;2023-03-20T05:33:02;11.39;80.18
69464;DHT22;56665;41.106;16.688;2023-03-20T05:36:06;11.47;79.89
69464;DHT22;56665;41.106;16.688;2023-03-20T05:39:23;11.56;79.70
69464;DHT22;56665;41.106;16.688;2023-03-20T05:42:41;11.66;79.29
69464;DHT22;56665;41.106;16.688;2023-03-20T05:46:17;11.77;78.62
69464;DHT22;56665;41.106;16.688;2023-03-20T05:49:41;11.94;78.32
69464;DHT22;56665;41.106;16.688;2023-03-20T05:53:07;12.14;77.92
69464;DHT22;56665;41.106;16.688;2023-03-20T05:56:37;12.27;77.77
69464;DHT22;56665;41.106;16.688;2023-03-20T06:00:00;12.38;77.56
69464;DHT22;56665;41.106;16.688;2023-03-20T06:03:24;12.52;77.59
69464;DHT22;56665;41.106;16.688;2023-03-20T06:06:38;12.68;77.20
69464;DHT22;56665;41.106;16.688;2023-03-20T06:09:44;12.78;76.85
69464;DHT22;56665;41.106;16.688;2023-03-20T06:12:49;12.88;76.72
69464;DHT22;56665;41.106;16.688;2023-03-20T06:15:56;13.05;76.40
69464;DHT22;56665;41.106;16.688;2023-03-20T06:19:00;13.19;75.92
69464;DHT22;56665;41.106;16.688;2023-03-20T06:22:04;13.37;75.68
69464;DHT22;56665;41.106;16.688;2023-03-20T06:25:09;13.50;74.94
69464;DHT22;56665;41.106;16.688;2023-03-20T06:28:17;13.55;74.51
69464;DHT22;56665;41.106;16.688;2023-03-20T06:31:22;13.65;73.93
69464;DHT22;56665;41.106;16.688;2023-03-20T06:34:26;13.78;74.23
69464;DHT22;56665;41.106;16.688;2023-03-20T06:37:30;14.05;73.17
69464;DHT22;56665;41.106;16.688;2023-03-20T06:40:42;14.39;72.69
69464;DHT22;56665;41.106;16.688;2023-03-20T06:43:49;14.67;71.82
69464;DHT22;56665;41.106;16.688;2023-03-20T06:46:54;14.89;71.27
69464;DHT22;56665;41.106;16.688;2023-03-20T06:49:58;15.15;70.90
69464;DHT22;56665;41.106;16.688;2023-03-20T06:53:02;15.47;69.94
69464;DHT22;56665;41.106;16.688;2023-03-20T06:56:10;15.83;69.31
69464;DHT22;56665;41.106;16.688;2023-03-20T06:59:18;16.10;69.01
69464;DHT22;56665;41.106;16.688;2023-03-20T07:02:21;16.53;67.74
69464;DHT22;56665;41.106;16.688;2023-03-20T07:05:26;16.70;67.29
69464;DHT22;56665;41.106;16.688;2023-03-20T07:08:32;16.93;65.99
69464;DHT22;56665;41.106;16.688;2023-03-20T07:11:36;16.75;66.03
69464;DHT22;56665;41.106;16.688;2023-03-20T07:14:41;17.03;65.98
69464;DHT22;56665;41.106;16.688;2023-03-20T07:17:52;17.03;65.34
69464;DHT22;56665;41.106;16.688;2023-03-20T07:21:01;17.23;65.69
69464;DHT22;56665;41.106;16.688;2023-03-20T07:24:05;17.32;65.01
69464;DHT22;56665;41.106;16.688;2023-03-20T07:27:12;17.57;64.72
69464;DHT22;56665;41.106;16.688;2023-03-20T07:30:17;17.93;63.50
69464;DHT22;56665;41.106;16.688;2023-03-20T07:33:23;17.96;63.46
69464;DHT22;56665;41.106;16.688;2023-03-20T07:36:28;17.92;63.60
69464;DHT22;56665;41.106;16.688;2023-03-20T07:39:35;18.03;63.35
69464;DHT22;56665;41.106;16.688;2023-03-20T07:43:04;18.26;62.55
69464;DHT22;56665;41.106;16.688;2023-03-20T07:46:28;18.88;61.33
69464;DHT22;56665;41.106;16.688;2023-03-20T07:49:33;19.36;60.19
69464;DHT22;56665;41.106;16.688;2023-03-20T07:52:37;19.82;58.91
69464;DHT22;56665;41.106;16.688;2023-03-20T07:55:43;20.15;57.52
69464;DHT22;56665;41.106;16.688;2023-03-20T07:58:47;20.09;56.81
69464;DHT22;56665;41.106;16.688;2023-03-20T08:01:50;20.08;56.17
69464;DHT22;56665;41.106;16.688;2023-03-20T08:04:54;19.91;56.68
69464;DHT22;56665;41.106;16.688;2023-03-20T08:07:58;20.22;55.81
69464;DHT22;56665;41.106;16.688;2023-03-20T08:11:01;20.21;55.71
69464;DHT22;56665;41.106;16.688;2023-03-20T08:14:05;20.47;55.19
69464;DHT22;56665;41.106;16.688;2023-03-20T08:17:09;20.50;55.36
69464;DHT22;56665;41.106;16.688;2023-03-20T08:20:15;20.40;55.64
69464;DHT22;56665;41.106;16.688;2023-03-20T08:23:19;20.36;55.62
69464;DHT22;56665;41.106;16.688;2023-03-20T08:26:23;20.16;55.90
69464;DHT22;56665;41.106;16.688;2023-03-20T08:29:28;19.87;56.95
69464;DHT22;56665;41.106;16.688;2023-03-20T08:32:32;19.47;57.96
69464;DHT22;56665;41.106;16.688;2023-03-20T08:35:36;19.05;59.08
69464;DHT22;56665;41.106;16.688;2023-03-20T08:38:40;18.77;59.86
69464;DHT22;56665;41.106;16.688;2023-03-20T08:41:44;18.63;60.31
69464;DHT22;56665;41.106;16.688;2023-03-20T08:44:48;18.61;59.94
69464;DHT22;56665;41.106;16.688;2023-03-20T08:47:52;18.91;59.44
69464;DHT22;56665;41.106;16.688;2023-03-20T08:50:57;19.20;58.60
69464;DHT22;56665;41.106;16.688;2023-03-20T08:54:01;19.85;57.29
69464;DHT22;56665;41.106;16.688;2023-03-20T08:57:08;20.36;55.56
69464;DHT22;56665;41.106;16.688;2023-03-20T09:00:13;21.11;53.97
69464;DHT22;56665;41.106;16.688;2023-03-20T09:03:19;21.41;53.20
69464;DHT22;56665;41.106;16.688;2023-03-20T09:06:25;21.76;52.66
69464;DHT22;56665;41.106;16.688;2023-03-20T09:09:32;22.10;52.13
69464;DHT22;56665;41.106;16.688;2023-03-20T09:12:37;22.54;51.06
69464;DHT22;56665;41.106;16.688;2023-03-20T09:15:41;22.99;49.59
69464;DHT22;56665;41.106;16.688;2023-03-20T09:18:46;23.40;48.08
69464;DHT22;56665;41.106;16.688;2023-03-20T09:21:50;23.81;47.37
69464;DHT22;56665;41.106;16.688;2023-03-20T09:24:55;23.94;47.01
69464;DHT22;56665;41.106;16.688;2023-03-20T09:28:00;23.97;47.36
69464;DHT22;56665;41.106;16.688;2023-03-20T09:31:04;24.23;46.43
69464;DHT22;56665;41.106;16.688;2023-03-20T09:34:08;24.59;45.15
69464;DHT22;56665;41.106;16.688;2023-03-20T09:37:12;24.22;45.88
69464;DHT22;56665;41.106;16.688;2023-03-20T09:40:28;24.05;46.50
69464;DHT22;56665;41.106;16.688;2023-03-20T09:50:28;24.74;45.12
69464;DHT22;56665;41.106;16.688;2023-03-20T09:53:41;24.76;44.99
69464;DHT22;56665;41.106;16.688;2023-03-20T09:56:46;24.99;45.08
69464;DHT22;56665;41.106;16.688;2023-03-20T09:59:55;25.22;44.25
69464;DHT22;56665;41.106;16.688;2023-03-20T10:03:03;24.88;44.34
69464;DHT22;56665;41.106;16.688;2023-03-20T10:06:14;24.86;44.35
69464;DHT22;56665;41.106;16.688;2023-03-20T10:09:27;24.73;44.45
69464;DHT22;56665;41.106;16.688;2023-03-20T10:12:51;24.02;45.71
69464;DHT22;56665;41.106;16.688;2023-03-20T10:19:21;23.20;47.29
69464;DHT22;56665;41.106;16.688;2023-03-20T10:22:33;22.96;47.89
69464;DHT22;56665;41.106;16.688;2023-03-20T10:25:45;22.82;47.88
69464;DHT22;56665;41.106;16.688;2023-03-20T10:29:04;22.55;48.29
69464;DHT22;56665;41.106;16.688;2023-03-20T10:32:23;22.13;49.33
69464;DHT22;56665;41.106;16.688;2023-03-20T10:39:00;21.42;50.57
69464;DHT22;56665;41.106;16.688;2023-03-20T10:42:13;21.21;51.00
69464;DHT22;56665;41.106;16.688;2023-03-20T10:45:44;21.34;51.35
69464;DHT22;56665;41.106;16.688;2023-03-20T10:49:01;21.89;52.98
69464;DHT22;56665;41.106;16.688;2023-03-20T10:52:13;22.43;53.06
69464;DHT22;56665;41.106;16.688;2023-03-20T10:55:27;23.23;51.63
69464;DHT22;56665;41.106;16.688;2023-03-20T10:58:38;23.50;51.35
69464;DHT22;56665;41.106;16.688;2023-03-20T11:01:42;23.00;52.85
69464;DHT22;56665;41.106;16.688;2023-03-20T11:04:47;22.99;52.49
69464;DHT22;56665;41.106;16.688;2023-03-20T11:08:04;23.11;52.29
69464;DHT22;56665;41.106;16.688;2023-03-20T11:11:09;22.75;53.34
69464;DHT22;56665;41.106;16.688;2023-03-20T11:14:22;22.89;53.35
69464;DHT22;56665;41.106;16.688;2023-03-20T11:17:29;23.19;52.59
69464;DHT22;56665;41.106;16.688;2023-03-20T11:20:38;23.51;51.88
69464;DHT22;56665;41.106;16.688;2023-03-20T11:23:42;23.12;52.18
69464;DHT22;56665;41.106;16.688;2023-03-20T11:26:46;22.51;53.57
69464;DHT22;56665;41.106;16.688;2023-03-20T11:29:50;22.06;54.36
69464;DHT22;56665;41.106;16.688;2023-03-20T11:32:54;21.58;55.56
69464;DHT22;56665;41.106;16.688;2023-03-20T11:35:59;21.25;56.29
69464;DHT22;56665;41.106;16.688;2023-03-20T11:39:14;20.86;57.73
69464;DHT22;56665;41.106;16.688;2023-03-20T11:42:25;20.57;57.81
69464;DHT22;56665;41.106;16.688;2023-03-20T11:45:40;20.32;58.38
69464;DHT22;56665;41.106;16.688;2023-03-20T11:48:46;20.14;59.31
69464;DHT22;56665;41.106;16.688;2023-03-20T11:51:51;19.87;59.94
69464;DHT22;56665;41.106;16.688;2023-03-20T11:54:58;19.81;60.41
69464;DHT22;56665;41.106;16.688;2023-03-20T11:58:04;19.57;61.06
69464;DHT22;56665;41.106;16.688;2023-03-20T12:01:12;19.75;60.62
69464;DHT22;56665;41.106;16.688;2023-03-20T12:04:35;20.14;58.81
69464;DHT22;56665;41.106;16.688;2023-03-20T12:07:48;20.67;57.74
69464;DHT22;56665;41.106;16.688;2023-03-20T12:14:42;20.38;57.83
69464;DHT22;56665;41.106;16.688;2023-03-20T12:25:01;21.83;52.54
69464;DHT22;56665;41.106;16.688;2023-03-20T12:28:32;21.80;52.89
69464;DHT22;56665;41.106;16.688;2023-03-20T12:31:48;21.22;53.88
69464;DHT22;56665;41.106;16.688;2023-03-20T12:34:56;21.34;53.95
69464;DHT22;56665;41.106;16.688;2023-03-20T12:38:01;21.67;53.88
69464;DHT22;56665;41.106;16.688;2023-03-20T12:41:26;21.95;53.69
69464;DHT22;56665;41.106;16.688;2023-03-20T12:50:54;21.07;52.83
69464;DHT22;56665;41.106;16.688;2023-03-20T12:57:41;20.93;52.67
69464;DHT22;56665;41.106;16.688;2023-03-20T13:14:10;21.69;50.34
69464;DHT22;56665;41.106;16.688;2023-03-20T13:18:00;21.77;50.68
69464;DHT22;56665;41.106;16.688;2023-03-20T13:21:15;21.85;50.40
69464;DHT22;56665;41.106;16.688;2023-03-20T13:24:46;21.08;51.43
69464;DHT22;56665;41.106;16.688;2023-03-20T13:28:03;20.94;50.95
69464;DHT22;56665;41.106;16.688;2023-03-20T13:37:59;19.51;54.26
69464;DHT22;56665;41.106;16.688;2023-03-20T13:41:06;19.30;54.56
69464;DHT22;56665;41.106;16.688;2023-03-20T13:44:16;19.49;55.52
69464;DHT22;56665;41.106;16.688;2023-03-20T13:47:25;20.09;54.20
69464;DHT22;56665;41.106;16.688;2023-03-20T14:00:55;20.18;52.82
69464;DHT22;56665;41.106;16.688;2023-03-20T14:04:02;20.00;52.63
69464;DHT22;56665;41.106;16.688;2023-03-20T14:07:34;20.32;52.38
69464;DHT22;56665;41.106;16.688;2023-03-20T14:10:38;20.77;49.87
69464;DHT22;56665;41.106;16.688;2023-03-20T14:13:44;20.56;50.86
69464;DHT22;56665;41.106;16.688;2023-03-20T14:17:24;20.05;51.69
69464;DHT22;56665;41.106;16.688;2023-03-20T14:20:35;19.87;51.56
69464;DHT22;56665;41.106;16.688;2023-03-20T14:23:49;19.39;52.69
69464;DHT22;56665;41.106;16.688;2023-03-20T14:26:56;19.18;54.28
69464;DHT22;56665;41.106;16.688;2023-03-20T14:33:32;18.72;55.79
69464;DHT22;56665;41.106;16.688;2023-03-20T14:36:58;18.48;55.81
69464;DHT22;56665;41.106;16.688;2023-03-20T14:40:16;18.46;55.41
69464;DHT22;56665;41.106;16.688;2023-03-20T14:54:22;18.05;57.19
69464;DHT22;56665;41.106;16.688;2023-03-20T14:57:47;17.93;57.84
69464;DHT22;56665;41.106;16.688;2023-03-20T15:00:51;17.82;58.68
69464;DHT22;56665;41.106;16.688;2023-03-20T15:04:07;17.51;60.97
69464;DHT22;56665;41.106;16.688;2023-03-20T15:07:37;17.37;63.20
69464;DHT22;56665;41.106;16.688;2023-03-20T15:10:46;17.42;64.20
69464;DHT22;56665;41.106;16.688;2023-03-20T15:13:51;17.54;64.92
69464;DHT22;56665;41.106;16.688;2023-03-20T15:16:58;17.52;65.92
69464;DHT22;56665;41.106;16.688;2023-03-20T15:23:13;17.38;67.73
69464;DHT22;56665;41.106;16.688;2023-03-20T15:26:18;17.47;67.84
69464;DHT22;56665;41.106;16.688;2023-03-20T15:29:23;17.51;67.43
69464;DHT22;56665;41.106;16.688;2023-03-20T15:32:26;17.57;67.42
69464;DHT22;56665;41.106;16.688;2023-03-20T15:35:31;17.59;67.42
69464;DHT22;56665;41.106;16.688;2023-03-20T15:38:36;17.44;67.91
69464;DHT22;56665;41.106;16.688;2023-03-20T15:42:02;17.39;67.98
69464;DHT22;56665;41.106;16.688;2023-03-20T15:45:17;17.34;68.34
69464;DHT22;56665;41.106;16.688;2023-03-20T15:48:25;17.27;68.64
69464;DHT22;56665;41.106;16.688;2023-03-20T15:51:29;17.28;68.76
69464;DHT22;56665;41.106;16.688;2023-03-20T15:54:33;17.23;69.17
69464;DHT22;56665;41.106;16.688;2023-03-20T15:57:41;17.23;69.46
69464;DHT22;56665;41.106;16.688;2023-03-20T16:00:48;17.16;69.51
69464;DHT22;56665;41.106;16.688;2023-03-20T16:03:57;17.10;69.56
69464;DHT22;56665;41.106;16.688;2023-03-20T16:07:01;17.00;70.71
69464;DHT22;56665;41.106;16.688;2023-03-20T16:10:42;16.92;72.00
69464;DHT22;56665;41.106;16.688;2023-03-20T16:13:47;16.83;72.58
69464;DHT22;56665;41.106;16.688;2023-03-20T16:16:53;16.79;74.04
69464;DHT22;56665;41.106;16.688;2023-03-20T16:19:59;16.79;73.61
69464;DHT22;56665;41.106;16.688;2023-03-20T16:23:06;16.72;73.77
69464;DHT22;56665;41.106;16.688;2023-03-20T16:26:15;16.55;74.12
69464;DHT22;56665;41.106;16.688;2023-03-20T16:29:21;16.38;74.40
69464;DHT22;56665;41.106;16.688;2023-03-20T16:32:39;16.20;75.16
69464;DHT22;56665;41.106;16.688;2023-03-20T16:35:46;16.10;75.24
69464;DHT22;56665;41.106;16.688;2023-03-20T16:39:06;15.91;76.10
69464;DHT22;56665;41.106;16.688;2023-03-20T16:42:21;15.94;76.17
69464;DHT22;56665;41.106;16.688;2023-03-20T16:45:31;15.98;76.26
69464;DHT22;56665;41.106;16.688;2023-03-20T16:48:36;15.98;76.37
69464;DHT22;56665;41.106;16.688;2023-03-20T16:51:42;15.91;76.77
69464;DHT22;56665;41.106;16.688;2023-03-20T16:54:46;15.94;76.89
69464;DHT22;56665;41.106;16.688;2023-03-20T16:57:54;15.94;77.08
69464;DHT22;56665;41.106;16.688;2023-03-20T17:01:05;15.96;77.50
69464;DHT22;56665;41.106;16.688;2023-03-20T17:04:28;15.96;77.74
69464;DHT22;56665;41.106;16.688;2023-03-20T17:07:35;15.93;77.76
69464;DHT22;56665;41.106;16.688;2023-03-20T17:10:43;15.93;77.78
69464;DHT22;56665;41.106;16.688;2023-03-20T17:13:47;15.91;77.86
69464;DHT22;56665;41.106;16.688;2023-03-20T17:16:51;15.90;77.76
69464;DHT22;56665;41.106;16.688;2023-03-20T17:19:57;15.93;77.54
69464;DHT22;56665;41.106;16.688;2023-03-20T17:23:02;15.91;77.52
69464;DHT22;56665;41.106;16.688;2023-03-20T17:26:10;15.88;77.31
69464;DHT22;56665;41.106;16.688;2023-03-20T17:29:15;15.88;77.17
69464;DHT22;56665;41.106;16.688;2023-03-20T17:32:20;15.91;76.86
69464;DHT22;56665;41.106;16.688;2023-03-20T17:35:26;15.93;76.53
69464;DHT22;56665;41.106;16.688;2023-03-20T17:38:31;15.91;76.43
69464;DHT22;56665;41.106;16.688;2023-03-20T17:41:35;15.90;76.38
69464;DHT22;56665;41.106;16.688;2023-03-20T17:44:38;15.94;76.17
69464;DHT22;56665;41.106;16.688;2023-03-20T17:47:44;15.90;76.05
69464;DHT22;56665;41.106;16.688;2023-03-20T17:50:49;15.93;75.67
69464;DHT22;56665;41.106;16.688;2023-03-20T17:53:54;15.88;75.63
69464;DHT22;56665;41.106;16.688;2023-03-20T17:57:00;15.90;75.90
69464;DHT22;56665;41.106;16.688;2023-03-20T18:00:12;15.88;76.94
69464;DHT22;56665;41.106;16.688;2023-03-20T18:03:18;15.81;77.61
69464;DHT22;56665;41.106;16.688;2023-03-20T18:06:27;15.70;78.27
69464;DHT22;56665;41.106;16.688;2023-03-20T18:09:32;15.63;78.47
69464;DHT22;56665;41.106;16.688;2023-03-20T18:12:35;15.55;78.62
69464;DHT22;56665;41.106;16.688;2023-03-20T18:15:41;15.49;78.49
69464;DHT22;56665;41.106;16.688;2023-03-20T18:18:46;15.46;78.89
69464;DHT22;56665;41.106;16.688;2023-03-20T18:21:51;15.40;78.88
69464;DHT22;56665;41.106;16.688;2023-03-20T18:24:55;15.39;78.85
69464;DHT22;56665;41.106;16.688;2023-03-20T18:28:00;15.38;78.25
69464;DHT22;56665;41.106;16.688;2023-03-20T18:31:06;15.39;77.40
69464;DHT22;56665;41.106;16.688;2023-03-20T18:34:10;15.40;77.10
69464;DHT22;56665;41.106;16.688;2023-03-20T18:37:14;15.36;76.67
69464;DHT22;56665;41.106;16.688;2023-03-20T18:40:24;15.35;76.13
69464;DHT22;56665;41.106;16.688;2023-03-20T18:43:29;15.36;76.16
69464;DHT22;56665;41.106;16.688;2023-03-20T18:46:33;15.36;76.36
69464;DHT22;56665;41.106;16.688;2023-03-20T18:49:37;15.34;76.79
69464;DHT22;56665;41.106;16.688;2023-03-20T18:52:41;15.31;77.12
69464;DHT22;56665;41.106;16.688;2023-03-20T18:55:46;15.28;77.46
69464;DHT22;56665;41.106;16.688;2023-03-20T18:58:52;15.22;77.69
69464;DHT22;56665;41.106;16.688;2023-03-20T19:01:56;15.18;78.11
69464;DHT22;56665;41.106;16.688;2023-03-20T19:05:00;15.12;78.42
69464;DHT22;56665;41.106;16.688;2023-03-20T19:08:04;15.15;78.38
69464;DHT22;56665;41.106;16.688;2023-03-20T19:11:09;15.14;78.62
69464;DHT22;56665;41.106;16.688;2023-03-20T19:14:17;15.05;78.74
69464;DHT22;56665;41.106;16.688;2023-03-20T19:17:21;15.02;78.88
69464;DHT22;56665;41.106;16.688;2023-03-20T19:20:38;14.99;79.13
69464;DHT22;56665;41.106;16.688;2023-03-20T19:23:42;14.98;79.19
69464;DHT22;56665;41.106;16.688;2023-03-20T19:26:46;14.99;79.38
69464;DHT22;56665;41.106;16.688;2023-03-20T19:29:51;15.01;79.39
69464;DHT22;56665;41.106;16.688;2023-03-20T19:32:59;15.02;79.94
69464;DHT22;56665;41.106;16.688;2023-03-20T19:36:05;14.99;79.48
69464;DHT22;56665;41.106;16.688;2023-03-20T19:39:10;14.97;79.74
69464;DHT22;56665;41.106;16.688;2023-03-20T19:42:15;14.98;79.98
69464;DHT22;56665;41.106;16.688;2023-03-20T19:45:18;14.99;80.18
69464;DHT22;56665;41.106;16.688;2023-03-20T19:48:25;15.01;80.35
69464;DHT22;56665;41.106;16.688;2023-03-20T19:51:30;14.98;80.33
69464;DHT22;56665;41.106;16.688;2023-03-20T19:54:35;14.99;80.42
69464;DHT22;56665;41.106;16.688;2023-03-20T19:57:39;14.89;81.66
69464;DHT22;56665;41.106;16.688;2023-03-20T20:00:43;14.83;82.42
69464;DHT22;56665;41.106;16.688;2023-03-20T20:03:49;14.74;83.45
69464;DHT22;56665;41.106;16.688;2023-03-20T20:06:55;14.60;84.47
69464;DHT22;56665;41.106;16.688;2023-03-20T20:09:59;14.43;85.14
69464;DHT22;56665;41.106;16.688;2023-03-20T20:13:04;14.30;86.29
69464;DHT22;56665;41.106;16.688;2023-03-20T20:16:08;14.26;87.25
69464;DHT22;56665;41.106;16.688;2023-03-20T20:19:12;14.29;87.30
69464;DHT22;56665;41.106;16.688;2023-03-20T20:22:16;14.37;87.04
69464;DHT22;56665;41.106;16.688;2023-03-20T20:25:21;14.41;86.57
69464;DHT22;56665;41.106;16.688;2023-03-20T20:28:25;14.46;86.28
69464;DHT22;56665;41.106;16.688;2023-03-20T20:31:30;14.49;86.07
69464;DHT22;56665;41.106;16.688;2023-03-20T20:34:33;14.49;86.06
69464;DHT22;56665;41.106;16.688;2023-03-20T20:37:37;14.43;86.08
69464;DHT22;56665;41.106;16.688;2023-03-20T20:40:44;14.44;86.06
69464;DHT22;56665;41.106;16.688;2023-03-20T20:43:48;14.49;86.50
69464;DHT22;56665;41.106;16.688;2023-03-20T20:46:52;14.55;86.35
69464;DHT22;56665;41.106;16.688;2023-03-20T20:49:56;14.56;86.10
69464;DHT22;56665;41.106;16.688;2023-03-20T20:53:00;14.49;86.15
69464;DHT22;56665;41.106;16.688;2023-03-20T20:56:05;14.41;86.85
69464;DHT22;56665;41.106;16.688;2023-03-20T20:59:09;14.33;87.40
69464;DHT22;56665;41.106;16.688;2023-03-20T21:02:13;14.34;88.22
69464;DHT22;56665;41.106;16.688;2023-03-20T21:05:19;14.33;88.31
69464;DHT22;56665;41.106;16.688;2023-03-20T21:08:22;14.29;88.39
69464;DHT22;56665;41.106;16.688;2023-03-20T21:11:26;14.25;88.38
69464;DHT22;56665;41.106;16.688;2023-03-20T21:14:31;14.23;88.54
69464;DHT22;56665;41.106;16.688;2023-03-20T21:17:35;14.26;88.70
69464;DHT22;56665;41.106;16.688;2023-03-20T21:20:39;14.26;88.50
69464;DHT22;56665;41.106;16.688;2023-03-20T21:23:42;14.23;88.52